sensor_id;sensor_type;location;lat;lon;timestamp;P1;durP1;ratioP1;P2;durP2;ratioP2
45764;SDS011;31474;45.332;10.230;2023-11-22T00:00:55;25.17;;;15.63;;
45764;SDS011;31474;45.332;10.230;2023-11-22T00:03:21;24.00;;;15.02;;
45764;SDS011;31474;45.332;10.230;2023-11-22T00:05:49;27.67;;;15.65;;
45764;SDS011;31474;45.332;10.230;2023-11-22T00:08:14;27.08;;;15.13;;
45764;SDS011;31474;45.332;10.230;2023-11-22T00:10:41;25.58;;;14.98;;
45764;SDS011;31474;45.332;10.230;2023-11-22T00:13:07;32.58;;;16.98;;
45764;SDS011;31474;45.332;10.230;2023-11-22T00:15:32;27.48;;;15.88;;
45764;SDS011;31474;45.332;10.230;2023-11-22T00:17:58;29.88;;;16.83;;
45764;SDS011;31474;45.332;10.230;2023-11-22T00:20:28;28.08;;;15.52;;
45764;SDS011;31474;45.332;10.230;2023-11-22T00:22:53;33.42;;;17.13;;
45764;SDS011;31474;45.332;10.230;2023-11-22T00:25:19;31.27;;;15.70;;
45764;SDS011;31474;45.332;10.230;2023-11-22T00:27:44;25.80;;;15.68;;
45764;SDS011;31474;45.332;10.230;2023-11-22T00:30:11;34.25;;;18.08;;
45764;SDS011;31474;45.332;10.230;2023-11-22T00:32:38;27.45;;;17.08;;
45764;SDS011;31474;45.332;10.230;2023-11-22T00:35:05;26.90;;;17.25;;
45764;SDS011;31474;45.332;10.230;2023-11-22T00:37:32;31.02;;;18.30;;
45764;SDS011;31474;45.332;10.230;2023-11-22T00:40:00;27.60;;;16.17;;
45764;SDS011;31474;45.332;10.230;2023-11-22T00:42:31;24.85;;;15.98;;
45764;SDS011;31474;45.332;10.230;2023-11-22T00:44:56;33.08;;;18.42;;
45764;SDS011;31474;45.332;10.230;2023-11-22T00:47:22;29.30;;;16.52;;
45764;SDS011;31474;45.332;10.230;2023-11-22T00:49:48;29.33;;;15.80;;
45764;SDS011;31474;45.332;10.230;2023-11-22T00:52:13;35.20;;;16.30;;
45764;SDS011;31474;45.332;10.230;2023-11-22T00:54:39;31.17;;;16.30;;
45764;SDS011;31474;45.332;10.230;2023-11-22T00:57:04;29.73;;;16.58;;
45764;SDS011;31474;45.332;10.230;2023-11-22T00:59:32;24.65;;;15.45;;
45764;SDS011;31474;45.332;10.230;2023-11-22T01:01:57;33.95;;;17.80;;
45764;SDS011;31474;45.332;10.230;2023-11-22T01:04:23;26.88;;;15.32;;
45764;SDS011;31474;45.332;10.230;2023-11-22T01:06:49;28.15;;;16.95;;
45764;SDS011;31474;45.332;10.230;2023-11-22T01:09:14;34.08;;;16.50;;
45764;SDS011;31474;45.332;10.230;2023-11-22T01:11:40;29.98;;;15.95;;
45764;SDS011;31474;45.332;10.230;2023-11-22T01:14:06;25.38;;;17.08;;
45764;SDS011;31474;45.332;10.230;2023-11-22T01:16:31;28.60;;;16.30;;
45764;SDS011;31474;45.332;10.230;2023-11-22T01:18:57;28.45;;;16.90;;
45764;SDS011;31474;45.332;10.230;2023-11-22T01:21:23;26.52;;;15.25;;
45764;SDS011;31474;45.332;10.230;2023-11-22T01:23:48;28.77;;;16.73;;
45764;SDS011;31474;45.332;10.230;2023-11-22T01:26:14;27.08;;;15.20;;
45764;SDS011;31474;45.332;10.230;2023-11-22T01:28:41;27.92;;;16.05;;
45764;SDS011;31474;45.332;10.230;2023-11-22T01:31:10;24.98;;;14.43;;
45764;SDS011;31474;45.332;10.230;2023-11-22T01:33:38;25.27;;;14.77;;
45764;SDS011;31474;45.332;10.230;2023-11-22T01:36:03;25.23;;;15.07;;
45764;SDS011;31474;45.332;10.230;2023-11-22T01:38:30;27.75;;;14.45;;
45764;SDS011;31474;45.332;10.230;2023-11-22T01:40:56;27.15;;;15.57;;
45764;SDS011;31474;45.332;10.230;2023-11-22T01:43:21;24.73;;;14.05;;
45764;SDS011;31474;45.332;10.230;2023-11-22T01:45:51;30.02;;;15.35;;
45764;SDS011;31474;45.332;10.230;2023-11-22T01:48:18;27.55;;;14.45;;
45764;SDS011;31474;45.332;10.230;2023-11-22T01:50:44;25.23;;;14.88;;
45764;SDS011;31474;45.332;10.230;2023-11-22T01:53:10;28.42;;;14.57;;
45764;SDS011;31474;45.332;10.230;2023-11-22T01:55:37;26.58;;;13.93;;
45764;SDS011;31474;45.332;10.230;2023-11-22T01:58:06;26.90;;;13.38;;
45764;SDS011;31474;45.332;10.230;2023-11-22T02:00:32;25.30;;;14.35;;
45764;SDS011;31474;45.332;10.230;2023-11-22T02:03:05;30.27;;;15.88;;
45764;SDS011;31474;45.332;10.230;2023-11-22T02:05:31;27.52;;;14.75;;
45764;SDS011;31474;45.332;10.230;2023-11-22T02:07:56;23.25;;;13.55;;
45764;SDS011;31474;45.332;10.230;2023-11-22T02:10:22;25.02;;;15.32;;
45764;SDS011;31474;45.332;10.230;2023-11-22T02:12:49;25.63;;;14.07;;
45764;SDS011;31474;45.332;10.230;2023-11-22T02:15:14;25.50;;;14.40;;
45764;SDS011;31474;45.332;10.230;2023-11-22T02:17:40;24.77;;;14.35;;
45764;SDS011;31474;45.332;10.230;2023-11-22T02:20:06;24.15;;;12.93;;
45764;SDS011;31474;45.332;10.230;2023-11-22T02:22:42;20.88;;;12.93;;
45764;SDS011;31474;45.332;10.230;2023-11-22T02:25:12;20.98;;;13.32;;
45764;SDS011;31474;45.332;10.230;2023-11-22T02:27:37;25.48;;;13.45;;
45764;SDS011;31474;45.332;10.230;2023-11-22T02:30:03;24.02;;;14.00;;
45764;SDS011;31474;45.332;10.230;2023-11-22T02:32:31;23.60;;;13.27;;
45764;SDS011;31474;45.332;10.230;2023-11-22T02:34:56;22.70;;;14.02;;
45764;SDS011;31474;45.332;10.230;2023-11-22T02:37:22;26.50;;;13.82;;
45764;SDS011;31474;45.332;10.230;2023-11-22T02:40:02;24.30;;;13.18;;
45764;SDS011;31474;45.332;10.230;2023-11-22T02:42:34;23.15;;;12.75;;
45764;SDS011;31474;45.332;10.230;2023-11-22T02:45:00;22.77;;;12.63;;
45764;SDS011;31474;45.332;10.230;2023-11-22T02:47:25;23.88;;;14.05;;
45764;SDS011;31474;45.332;10.230;2023-11-22T02:49:51;21.98;;;14.10;;
45764;SDS011;31474;45.332;10.230;2023-11-22T02:52:17;21.17;;;12.85;;
45764;SDS011;31474;45.332;10.230;2023-11-22T02:54:43;24.50;;;12.82;;
45764;SDS011;31474;45.332;10.230;2023-11-22T02:57:10;26.10;;;13.25;;
45764;SDS011;31474;45.332;10.230;2023-11-22T02:59:37;21.80;;;13.07;;
45764;SDS011;31474;45.332;10.230;2023-11-22T03:02:06;25.70;;;12.93;;
45764;SDS011;31474;45.332;10.230;2023-11-22T03:04:32;21.05;;;13.65;;
45764;SDS011;31474;45.332;10.230;2023-11-22T03:06:59;21.00;;;12.98;;
45764;SDS011;31474;45.332;10.230;2023-11-22T03:09:24;20.50;;;13.70;;
45764;SDS011;31474;45.332;10.230;2023-11-22T03:11:51;22.85;;;12.65;;
45764;SDS011;31474;45.332;10.230;2023-11-22T03:14:20;22.75;;;11.77;;
45764;SDS011;31474;45.332;10.230;2023-11-22T03:16:46;21.20;;;12.43;;
45764;SDS011;31474;45.332;10.230;2023-11-22T03:19:13;20.80;;;13.02;;
45764;SDS011;31474;45.332;10.230;2023-11-22T03:21:42;18.25;;;11.95;;
45764;SDS011;31474;45.332;10.230;2023-11-22T03:24:09;21.10;;;10.95;;
45764;SDS011;31474;45.332;10.230;2023-11-22T03:26:35;24.50;;;12.23;;
45764;SDS011;31474;45.332;10.230;2023-11-22T03:29:01;22.08;;;12.63;;
45764;SDS011;31474;45.332;10.230;2023-11-22T03:31:29;22.40;;;12.20;;
45764;SDS011;31474;45.332;10.230;2023-11-22T03:33:56;18.88;;;12.18;;
45764;SDS011;31474;45.332;10.230;2023-11-22T03:36:22;19.30;;;12.30;;
45764;SDS011;31474;45.332;10.230;2023-11-22T03:38:49;20.65;;;12.25;;
45764;SDS011;31474;45.332;10.230;2023-11-22T03:41:15;23.42;;;11.20;;
45764;SDS011;31474;45.332;10.230;2023-11-22T03:43:42;18.80;;;11.57;;
45764;SDS011;31474;45.332;10.230;2023-11-22T03:46:08;22.10;;;12.55;;
45764;SDS011;31474;45.332;10.230;2023-11-22T03:48:36;22.95;;;11.63;;
45764;SDS011;31474;45.332;10.230;2023-11-22T03:51:02;19.98;;;12.20;;
45764;SDS011;31474;45.332;10.230;2023-11-22T03:53:28;17.30;;;10.10;;
45764;SDS011;31474;45.332;10.230;2023-11-22T03:55:54;17.10;;;10.15;;
45764;SDS011;31474;45.332;10.230;2023-11-22T03:58:20;20.45;;;10.93;;
45764;SDS011;31474;45.332;10.230;2023-11-22T04:00:46;21.42;;;10.63;;
45764;SDS011;31474;45.332;10.230;2023-11-22T04:03:12;20.73;;;11.30;;
45764;SDS011;31474;45.332;10.230;2023-11-22T04:05:37;17.80;;;9.70;;
45764;SDS011;31474;45.332;10.230;2023-11-22T04:08:03;16.50;;;9.15;;
45764;SDS011;31474;45.332;10.230;2023-11-22T04:10:29;20.13;;;9.90;;
45764;SDS011;31474;45.332;10.230;2023-11-22T04:12:55;19.75;;;11.05;;
45764;SDS011;31474;45.332;10.230;2023-11-22T04:15:21;15.43;;;10.75;;
45764;SDS011;31474;45.332;10.230;2023-11-22T04:17:47;16.52;;;9.23;;
45764;SDS011;31474;45.332;10.230;2023-11-22T04:20:14;16.65;;;9.85;;
45764;SDS011;31474;45.332;10.230;2023-11-22T04:22:43;14.63;;;9.25;;
45764;SDS011;31474;45.332;10.230;2023-11-22T04:25:13;14.07;;;9.02;;
45764;SDS011;31474;45.332;10.230;2023-11-22T04:27:39;15.43;;;8.82;;
45764;SDS011;31474;45.332;10.230;2023-11-22T04:30:05;15.65;;;9.10;;
45764;SDS011;31474;45.332;10.230;2023-11-22T04:32:39;16.15;;;9.90;;
45764;SDS011;31474;45.332;10.230;2023-11-22T04:35:07;17.02;;;8.95;;
45764;SDS011;31474;45.332;10.230;2023-11-22T04:37:33;14.35;;;8.45;;
45764;SDS011;31474;45.332;10.230;2023-11-22T04:39:59;15.50;;;8.48;;
45764;SDS011;31474;45.332;10.230;2023-11-22T04:42:26;14.98;;;8.82;;
45764;SDS011;31474;45.332;10.230;2023-11-22T04:44:53;16.48;;;8.68;;
45764;SDS011;31474;45.332;10.230;2023-11-22T04:47:19;15.85;;;8.95;;
45764;SDS011;31474;45.332;10.230;2023-11-22T04:49:47;15.77;;;8.60;;
45764;SDS011;31474;45.332;10.230;2023-11-22T04:52:13;14.95;;;8.90;;
45764;SDS011;31474;45.332;10.230;2023-11-22T04:54:39;16.30;;;8.73;;
45764;SDS011;31474;45.332;10.230;2023-11-22T04:57:05;16.73;;;8.85;;
45764;SDS011;31474;45.332;10.230;2023-11-22T04:59:30;15.43;;;8.45;;
45764;SDS011;31474;45.332;10.230;2023-11-22T05:01:56;14.25;;;8.95;;
45764;SDS011;31474;45.332;10.230;2023-11-22T05:04:22;12.98;;;7.97;;
45764;SDS011;31474;45.332;10.230;2023-11-22T05:06:48;10.63;;;7.43;;
45764;SDS011;31474;45.332;10.230;2023-11-22T05:09:13;14.52;;;8.85;;
45764;SDS011;31474;45.332;10.230;2023-11-22T05:11:39;19.83;;;8.70;;
45764;SDS011;31474;45.332;10.230;2023-11-22T05:14:09;16.23;;;8.30;;
45764;SDS011;31474;45.332;10.230;2023-11-22T05:16:35;14.32;;;9.15;;
45764;SDS011;31474;45.332;10.230;2023-11-22T05:19:01;14.40;;;8.50;;
45764;SDS011;31474;45.332;10.230;2023-11-22T05:21:27;13.25;;;8.15;;
45764;SDS011;31474;45.332;10.230;2023-11-22T05:23:53;15.05;;;8.07;;
45764;SDS011;31474;45.332;10.230;2023-11-22T05:26:19;13.50;;;8.45;;
45764;SDS011;31474;45.332;10.230;2023-11-22T05:28:47;14.93;;;8.20;;
45764;SDS011;31474;45.332;10.230;2023-11-22T05:31:13;13.50;;;8.02;;
45764;SDS011;31474;45.332;10.230;2023-11-22T05:33:39;14.32;;;7.13;;
45764;SDS011;31474;45.332;10.230;2023-11-22T05:36:05;14.43;;;7.72;;
45764;SDS011;31474;45.332;10.230;2023-11-22T05:38:31;10.93;;;7.20;;
45764;SDS011;31474;45.332;10.230;2023-11-22T05:40:58;9.82;;;6.40;;
45764;SDS011;31474;45.332;10.230;2023-11-22T05:43:25;12.13;;;8.07;;
45764;SDS011;31474;45.332;10.230;2023-11-22T05:45:52;13.75;;;7.82;;
45764;SDS011;31474;45.332;10.230;2023-11-22T05:48:20;10.77;;;7.63;;
45764;SDS011;31474;45.332;10.230;2023-11-22T05:50:46;11.52;;;6.78;;
45764;SDS011;31474;45.332;10.230;2023-11-22T05:53:13;13.73;;;7.47;;
45764;SDS011;31474;45.332;10.230;2023-11-22T05:55:44;10.45;;;7.53;;
45764;SDS011;31474;45.332;10.230;2023-11-22T05:58:12;12.77;;;6.47;;
45764;SDS011;31474;45.332;10.230;2023-11-22T06:00:41;14.27;;;9.18;;
45764;SDS011;31474;45.332;10.230;2023-11-22T06:03:11;12.75;;;7.60;;
45764;SDS011;31474;45.332;10.230;2023-11-22T06:05:37;13.48;;;7.68;;
45764;SDS011;31474;45.332;10.230;2023-11-22T06:08:03;12.93;;;8.88;;
45764;SDS011;31474;45.332;10.230;2023-11-22T06:10:29;13.45;;;8.60;;
45764;SDS011;31474;45.332;10.230;2023-11-22T06:12:55;15.50;;;8.88;;
45764;SDS011;31474;45.332;10.230;2023-11-22T06:15:21;17.17;;;7.78;;
45764;SDS011;31474;45.332;10.230;2023-11-22T06:17:48;15.68;;;7.60;;
45764;SDS011;31474;45.332;10.230;2023-11-22T06:20:14;10.63;;;7.00;;
45764;SDS011;31474;45.332;10.230;2023-11-22T06:22:41;12.18;;;7.43;;
45764;SDS011;31474;45.332;10.230;2023-11-22T06:25:10;13.40;;;7.03;;
45764;SDS011;31474;45.332;10.230;2023-11-22T06:27:37;11.50;;;6.30;;
45764;SDS011;31474;45.332;10.230;2023-11-22T06:30:03;11.77;;;7.20;;
45764;SDS011;31474;45.332;10.230;2023-11-22T06:32:31;9.23;;;5.88;;
45764;SDS011;31474;45.332;10.230;2023-11-22T06:34:57;14.57;;;7.22;;
45764;SDS011;31474;45.332;10.230;2023-11-22T06:37:22;12.63;;;6.95;;
45764;SDS011;31474;45.332;10.230;2023-11-22T06:39:48;17.77;;;7.03;;
45764;SDS011;31474;45.332;10.230;2023-11-22T06:42:15;14.85;;;6.72;;
45764;SDS011;31474;45.332;10.230;2023-11-22T06:44:41;12.25;;;6.80;;
45764;SDS011;31474;45.332;10.230;2023-11-22T06:47:07;15.45;;;6.53;;
45764;SDS011;31474;45.332;10.230;2023-11-22T06:49:33;13.02;;;7.10;;
45764;SDS011;31474;45.332;10.230;2023-11-22T06:51:59;13.50;;;8.00;;
45764;SDS011;31474;45.332;10.230;2023-11-22T06:54:25;14.27;;;6.57;;
45764;SDS011;31474;45.332;10.230;2023-11-22T06:56:50;11.98;;;6.40;;
45764;SDS011;31474;45.332;10.230;2023-11-22T06:59:17;11.27;;;6.25;;
45764;SDS011;31474;45.332;10.230;2023-11-22T07:01:43;13.43;;;6.95;;
45764;SDS011;31474;45.332;10.230;2023-11-22T07:04:10;17.50;;;7.70;;
45764;SDS011;31474;45.332;10.230;2023-11-22T07:06:36;12.30;;;7.03;;
45764;SDS011;31474;45.332;10.230;2023-11-22T07:09:05;15.70;;;8.00;;
45764;SDS011;31474;45.332;10.230;2023-11-22T07:11:34;18.73;;;8.60;;
45764;SDS011;31474;45.332;10.230;2023-11-22T07:14:02;17.05;;;8.48;;
45764;SDS011;31474;45.332;10.230;2023-11-22T07:16:28;16.98;;;8.63;;
45764;SDS011;31474;45.332;10.230;2023-11-22T07:18:54;18.48;;;9.02;;
45764;SDS011;31474;45.332;10.230;2023-11-22T07:21:20;22.20;;;7.43;;
45764;SDS011;31474;45.332;10.230;2023-11-22T07:23:46;17.17;;;8.32;;
45764;SDS011;31474;45.332;10.230;2023-11-22T07:26:12;13.68;;;8.05;;
45764;SDS011;31474;45.332;10.230;2023-11-22T07:28:41;15.93;;;7.85;;
45764;SDS011;31474;45.332;10.230;2023-11-22T07:31:07;18.35;;;8.98;;
45764;SDS011;31474;45.332;10.230;2023-11-22T07:33:34;16.83;;;7.45;;
45764;SDS011;31474;45.332;10.230;2023-11-22T07:36:00;14.50;;;8.20;;
45764;SDS011;31474;45.332;10.230;2023-11-22T07:38:26;26.42;;;9.63;;
45764;SDS011;31474;45.332;10.230;2023-11-22T07:40:52;25.40;;;11.70;;
45764;SDS011;31474;45.332;10.230;2023-11-22T07:43:18;24.75;;;12.85;;
45764;SDS011;31474;45.332;10.230;2023-11-22T07:45:43;46.10;;;21.85;;
45764;SDS011;31474;45.332;10.230;2023-11-22T07:48:12;39.85;;;20.52;;
45764;SDS011;31474;45.332;10.230;2023-11-22T07:50:38;47.83;;;19.33;;
45764;SDS011;31474;45.332;10.230;2023-11-22T07:53:04;23.98;;;13.27;;
45764;SDS011;31474;45.332;10.230;2023-11-22T07:55:30;31.63;;;17.75;;
45764;SDS011;31474;45.332;10.230;2023-11-22T07:57:56;26.92;;;13.45;;
45764;SDS011;31474;45.332;10.230;2023-11-22T08:00:22;20.52;;;11.45;;
45764;SDS011;31474;45.332;10.230;2023-11-22T08:02:48;20.88;;;11.43;;
45764;SDS011;31474;45.332;10.230;2023-11-22T08:05:15;20.15;;;10.65;;
45764;SDS011;31474;45.332;10.230;2023-11-22T08:07:41;18.73;;;10.27;;
45764;SDS011;31474;45.332;10.230;2023-11-22T08:10:09;16.15;;;10.02;;
45764;SDS011;31474;45.332;10.230;2023-11-22T08:12:43;20.73;;;9.57;;
45764;SDS011;31474;45.332;10.230;2023-11-22T08:15:10;21.60;;;10.32;;
45764;SDS011;31474;45.332;10.230;2023-11-22T08:17:38;19.88;;;11.38;;
45764;SDS011;31474;45.332;10.230;2023-11-22T08:20:05;25.27;;;11.73;;
45764;SDS011;31474;45.332;10.230;2023-11-22T08:22:32;22.15;;;11.27;;
45764;SDS011;31474;45.332;10.230;2023-11-22T08:25:03;18.05;;;10.70;;
45764;SDS011;31474;45.332;10.230;2023-11-22T08:27:29;16.42;;;10.85;;
45764;SDS011;31474;45.332;10.230;2023-11-22T08:29:55;20.50;;;11.65;;
45764;SDS011;31474;45.332;10.230;2023-11-22T08:32:21;23.08;;;10.68;;
45764;SDS011;31474;45.332;10.230;2023-11-22T08:34:50;19.00;;;10.43;;
45764;SDS011;31474;45.332;10.230;2023-11-22T08:37:16;21.50;;;10.25;;
45764;SDS011;31474;45.332;10.230;2023-11-22T08:39:42;17.83;;;10.13;;
45764;SDS011;31474;45.332;10.230;2023-11-22T08:42:08;24.08;;;10.77;;
45764;SDS011;31474;45.332;10.230;2023-11-22T08:44:37;16.77;;;9.80;;
45764;SDS011;31474;45.332;10.230;2023-11-22T08:47:03;17.10;;;9.93;;
45764;SDS011;31474;45.332;10.230;2023-11-22T08:49:29;18.75;;;9.93;;
45764;SDS011;31474;45.332;10.230;2023-11-22T08:51:55;18.65;;;10.52;;
45764;SDS011;31474;45.332;10.230;2023-11-22T08:54:21;21.15;;;10.05;;
45764;SDS011;31474;45.332;10.230;2023-11-22T08:56:47;25.92;;;11.93;;
45764;SDS011;31474;45.332;10.230;2023-11-22T08:59:13;17.15;;;11.35;;
45764;SDS011;31474;45.332;10.230;2023-11-22T09:01:41;20.88;;;9.70;;
45764;SDS011;31474;45.332;10.230;2023-11-22T09:04:10;18.95;;;9.63;;
45764;SDS011;31474;45.332;10.230;2023-11-22T09:06:36;22.40;;;11.82;;
45764;SDS011;31474;45.332;10.230;2023-11-22T09:09:02;15.85;;;9.07;;
45764;SDS011;31474;45.332;10.230;2023-11-22T09:11:28;13.93;;;8.75;;
45764;SDS011;31474;45.332;10.230;2023-11-22T09:13:54;14.07;;;7.88;;
45764;SDS011;31474;45.332;10.230;2023-11-22T09:16:22;14.95;;;9.63;;
45764;SDS011;31474;45.332;10.230;2023-11-22T09:18:50;18.60;;;9.35;;
45764;SDS011;31474;45.332;10.230;2023-11-22T09:21:16;22.95;;;10.35;;
45764;SDS011;31474;45.332;10.230;2023-11-22T09:23:45;18.00;;;8.55;;
45764;SDS011;31474;45.332;10.230;2023-11-22T09:26:12;13.85;;;8.98;;
45764;SDS011;31474;45.332;10.230;2023-11-22T09:28:39;21.60;;;8.68;;
45764;SDS011;31474;45.332;10.230;2023-11-22T09:31:06;15.98;;;8.65;;
45764;SDS011;31474;45.332;10.230;2023-11-22T09:33:32;16.20;;;9.30;;
45764;SDS011;31474;45.332;10.230;2023-11-22T09:35:57;21.50;;;9.55;;
45764;SDS011;31474;45.332;10.230;2023-11-22T09:38:23;13.27;;;7.65;;
45764;SDS011;31474;45.332;10.230;2023-11-22T09:40:50;24.35;;;8.48;;
45764;SDS011;31474;45.332;10.230;2023-11-22T09:43:17;16.92;;;8.55;;
45764;SDS011;31474;45.332;10.230;2023-11-22T09:45:44;16.48;;;7.60;;
45764;SDS011;31474;45.332;10.230;2023-11-22T09:48:17;18.55;;;8.75;;
45764;SDS011;31474;45.332;10.230;2023-11-22T09:53:40;17.23;;;7.82;;
45764;SDS011;31474;45.332;10.230;2023-11-22T09:56:10;17.23;;;7.88;;
45764;SDS011;31474;45.332;10.230;2023-11-22T09:58:39;14.35;;;8.20;;
45764;SDS011;31474;45.332;10.230;2023-11-22T10:01:08;17.20;;;8.85;;
45764;SDS011;31474;45.332;10.230;2023-11-22T10:03:36;14.35;;;8.77;;
45764;SDS011;31474;45.332;10.230;2023-11-22T10:06:03;15.93;;;7.85;;
45764;SDS011;31474;45.332;10.230;2023-11-22T10:08:29;12.43;;;7.13;;
45764;SDS011;31474;45.332;10.230;2023-11-22T10:10:56;14.73;;;7.22;;
45764;SDS011;31474;45.332;10.230;2023-11-22T10:13:23;13.90;;;7.85;;
45764;SDS011;31474;45.332;10.230;2023-11-22T10:15:51;19.10;;;6.47;;
45764;SDS011;31474;45.332;10.230;2023-11-22T10:18:18;21.05;;;12.35;;
45764;SDS011;31474;45.332;10.230;2023-11-22T10:20:48;38.35;;;27.40;;
45764;SDS011;31474;45.332;10.230;2023-11-22T10:23:17;18.48;;;9.27;;
45764;SDS011;31474;45.332;10.230;2023-11-22T10:25:48;17.20;;;10.75;;
45764;SDS011;31474;45.332;10.230;2023-11-22T10:28:18;10.85;;;7.65;;
45764;SDS011;31474;45.332;10.230;2023-11-22T10:30:49;12.32;;;6.68;;
45764;SDS011;31474;45.332;10.230;2023-11-22T10:33:16;11.52;;;6.05;;
45764;SDS011;31474;45.332;10.230;2023-11-22T10:35:46;6.95;;;4.38;;
45764;SDS011;31474;45.332;10.230;2023-11-22T10:38:13;5.63;;;3.25;;
45764;SDS011;31474;45.332;10.230;2023-11-22T10:40:42;5.10;;;3.25;;
45764;SDS011;31474;45.332;10.230;2023-11-22T10:43:12;3.50;;;1.95;;
45764;SDS011;31474;45.332;10.230;2023-11-22T10:45:38;3.60;;;2.22;;
45764;SDS011;31474;45.332;10.230;2023-11-22T10:48:09;3.65;;;2.38;;
45764;SDS011;31474;45.332;10.230;2023-11-22T10:50:36;3.60;;;1.67;;
45764;SDS011;31474;45.332;10.230;2023-11-22T10:53:02;5.07;;;1.77;;
45764;SDS011;31474;45.332;10.230;2023-11-22T10:55:32;3.95;;;1.23;;
45764;SDS011;31474;45.332;10.230;2023-11-22T10:58:03;2.67;;;1.40;;
45764;SDS011;31474;45.332;10.230;2023-11-22T11:00:32;2.90;;;1.40;;
45764;SDS011;31474;45.332;10.230;2023-11-22T11:03:08;2.25;;;1.80;;
45764;SDS011;31474;45.332;10.230;2023-11-22T11:05:37;2.42;;;1.20;;
45764;SDS011;31474;45.332;10.230;2023-11-22T11:08:11;1.73;;;1.40;;
45764;SDS011;31474;45.332;10.230;2023-11-22T11:10:44;4.75;;;2.22;;
45764;SDS011;31474;45.332;10.230;2023-11-22T11:13:10;2.67;;;2.00;;
45764;SDS011;31474;45.332;10.230;2023-11-22T11:15:38;2.60;;;1.70;;
45764;SDS011;31474;45.332;10.230;2023-11-22T11:18:14;3.85;;;2.42;;
45764;SDS011;31474;45.332;10.230;2023-11-22T11:20:50;3.15;;;2.33;;
45764;SDS011;31474;45.332;10.230;2023-11-22T11:23:17;3.05;;;2.17;;
45764;SDS011;31474;45.332;10.230;2023-11-22T11:25:47;5.70;;;2.13;;
45764;SDS011;31474;45.332;10.230;2023-11-22T11:28:14;2.50;;;2.30;;
45764;SDS011;31474;45.332;10.230;2023-11-22T11:30:40;6.03;;;2.80;;
45764;SDS011;31474;45.332;10.230;2023-11-22T11:33:13;3.85;;;2.88;;
45764;SDS011;31474;45.332;10.230;2023-11-22T11:35:42;4.97;;;2.42;;
45764;SDS011;31474;45.332;10.230;2023-11-22T11:38:12;4.03;;;2.75;;
45764;SDS011;31474;45.332;10.230;2023-11-22T11:40:52;3.25;;;2.70;;
45764;SDS011;31474;45.332;10.230;2023-11-22T11:46:11;3.13;;;2.20;;
45764;SDS011;31474;45.332;10.230;2023-11-22T11:48:41;5.15;;;2.63;;
45764;SDS011;31474;45.332;10.230;2023-11-22T11:51:13;4.13;;;3.20;;
45764;SDS011;31474;45.332;10.230;2023-11-22T11:53:43;2.72;;;2.13;;
45764;SDS011;31474;45.332;10.230;2023-11-22T11:56:10;3.80;;;1.90;;
45764;SDS011;31474;45.332;10.230;2023-11-22T11:58:36;3.28;;;1.85;;
45764;SDS011;31474;45.332;10.230;2023-11-22T12:01:04;2.70;;;1.80;;
45764;SDS011;31474;45.332;10.230;2023-11-22T12:03:30;3.90;;;1.90;;
45764;SDS011;31474;45.332;10.230;2023-11-22T12:05:55;3.08;;;2.00;;
45764;SDS011;31474;45.332;10.230;2023-11-22T12:08:21;3.55;;;2.10;;
45764;SDS011;31474;45.332;10.230;2023-11-22T12:10:47;2.53;;;1.95;;
45764;SDS011;31474;45.332;10.230;2023-11-22T12:13:17;3.85;;;1.92;;
45764;SDS011;31474;45.332;10.230;2023-11-22T12:15:44;2.97;;;1.60;;
45764;SDS011;31474;45.332;10.230;2023-11-22T12:18:11;3.80;;;1.88;;
45764;SDS011;31474;45.332;10.230;2023-11-22T12:20:37;3.78;;;2.08;;
45764;SDS011;31474;45.332;10.230;2023-11-22T12:23:04;3.92;;;1.85;;
45764;SDS011;31474;45.332;10.230;2023-11-22T12:25:30;3.50;;;1.90;;
45764;SDS011;31474;45.332;10.230;2023-11-22T12:27:56;4.35;;;2.22;;
45764;SDS011;31474;45.332;10.230;2023-11-22T12:30:29;2.42;;;2.08;;
45764;SDS011;31474;45.332;10.230;2023-11-22T12:32:56;2.90;;;2.10;;
45764;SDS011;31474;45.332;10.230;2023-11-22T12:35:22;3.97;;;2.50;;
45764;SDS011;31474;45.332;10.230;2023-11-22T12:37:48;3.08;;;2.17;;
45764;SDS011;31474;45.332;10.230;2023-11-22T12:40:14;3.45;;;2.70;;
45764;SDS011;31474;45.332;10.230;2023-11-22T12:42:49;2.70;;;1.98;;
45764;SDS011;31474;45.332;10.230;2023-11-22T12:45:25;5.13;;;2.88;;
45764;SDS011;31474;45.332;10.230;2023-11-22T12:47:53;3.90;;;2.20;;
45764;SDS011;31474;45.332;10.230;2023-11-22T12:52:56;3.67;;;2.50;;
45764;SDS011;31474;45.332;10.230;2023-11-22T12:55:22;6.72;;;5.60;;
45764;SDS011;31474;45.332;10.230;2023-11-22T12:58:00;12.13;;;11.10;;
45764;SDS011;31474;45.332;10.230;2023-11-22T13:00:28;5.25;;;4.20;;
45764;SDS011;31474;45.332;10.230;2023-11-22T13:02:57;4.43;;;3.13;;
45764;SDS011;31474;45.332;10.230;2023-11-22T13:05:23;3.17;;;2.05;;
45764;SDS011;31474;45.332;10.230;2023-11-22T13:07:50;4.60;;;2.42;;
45764;SDS011;31474;45.332;10.230;2023-11-22T13:10:16;4.30;;;2.45;;
45764;SDS011;31474;45.332;10.230;2023-11-22T13:12:45;3.88;;;2.35;;
45764;SDS011;31474;45.332;10.230;2023-11-22T13:15:11;2.83;;;2.35;;
45764;SDS011;31474;45.332;10.230;2023-11-22T13:17:40;5.72;;;4.43;;
45764;SDS011;31474;45.332;10.230;2023-11-22T13:20:06;4.30;;;2.50;;
45764;SDS011;31474;45.332;10.230;2023-11-22T13:22:40;4.07;;;2.22;;
45764;SDS011;31474;45.332;10.230;2023-11-22T13:25:10;4.85;;;2.28;;
45764;SDS011;31474;45.332;10.230;2023-11-22T13:27:38;2.45;;;2.05;;
45764;SDS011;31474;45.332;10.230;2023-11-22T13:30:04;2.88;;;2.00;;
45764;SDS011;31474;45.332;10.230;2023-11-22T13:32:31;8.15;;;4.22;;
45764;SDS011;31474;45.332;10.230;2023-11-22T13:34:57;5.15;;;3.42;;
45764;SDS011;31474;45.332;10.230;2023-11-22T13:37:25;3.58;;;2.65;;
45764;SDS011;31474;45.332;10.230;2023-11-22T13:39:54;12.38;;;10.82;;
45764;SDS011;31474;45.332;10.230;2023-11-22T13:42:20;4.88;;;4.10;;
45764;SDS011;31474;45.332;10.230;2023-11-22T13:44:45;4.88;;;2.63;;
45764;SDS011;31474;45.332;10.230;2023-11-22T13:47:12;6.40;;;2.47;;
45764;SDS011;31474;45.332;10.230;2023-11-22T13:49:39;3.45;;;2.85;;
45764;SDS011;31474;45.332;10.230;2023-11-22T13:52:05;2.85;;;2.33;;
45764;SDS011;31474;45.332;10.230;2023-11-22T13:54:31;5.78;;;3.08;;
45764;SDS011;31474;45.332;10.230;2023-11-22T13:56:59;4.43;;;2.30;;
45764;SDS011;31474;45.332;10.230;2023-11-22T13:59:25;2.40;;;1.70;;
45764;SDS011;31474;45.332;10.230;2023-11-22T14:01:51;5.47;;;2.63;;
45764;SDS011;31474;45.332;10.230;2023-11-22T14:04:17;3.45;;;2.60;;
45764;SDS011;31474;45.332;10.230;2023-11-22T14:06:42;4.47;;;2.65;;
45764;SDS011;31474;45.332;10.230;2023-11-22T14:09:08;3.95;;;2.88;;
45764;SDS011;31474;45.332;10.230;2023-11-22T14:11:37;2.60;;;1.65;;
45764;SDS011;31474;45.332;10.230;2023-11-22T14:14:03;1.50;;;1.40;;
45764;SDS011;31474;45.332;10.230;2023-11-22T14:16:29;2.58;;;1.67;;
45764;SDS011;31474;45.332;10.230;2023-11-22T14:18:59;4.00;;;2.20;;
45764;SDS011;31474;45.332;10.230;2023-11-22T14:21:25;3.75;;;2.35;;
45764;SDS011;31474;45.332;10.230;2023-11-22T14:23:51;4.15;;;2.10;;
45764;SDS011;31474;45.332;10.230;2023-11-22T14:26:18;3.53;;;1.42;;
45764;SDS011;31474;45.332;10.230;2023-11-22T14:28:43;3.75;;;2.10;;